Time;durP1;ratioP1;P1;durP2;ratioP2;P2;SDS_P1;SDS_P2;PMS_P1;PMS_P2;Temp;Humidity;BMP_temperature;BMP_pressure;BME280_temperature;BME280_humidity;BME280_pressure;Samples;Min_cycle;Max_cycle;Signal;HPM_P1;HPM_P2
2021/11/25 10:31:32;;;;;;;20.60;12.57;;;4.30;99.90;;;;;;5043057;28;20037;-80
2021/11/25 10:34:11;;;;;;;23.70;12.27;;;4.30;99.90;;;;;;5062923;28;20022;-85
2021/11/25 10:42:03;;;;;;;21.17;11.50;;;4.30;99.90;;;;;;5048923;28;20029;-84
2021/11/25 10:44:32;;;;;;;20.35;12.15;;;4.30;99.90;;;;;;5037706;28;20029;-81
2021/11/25 10:47:13;;;;;;;20.02;12.20;;;4.20;99.90;;;;;;5055271;28;20029;-80
2021/11/25 10:50:03;;;;;;;22.20;12.85;;;4.20;99.90;;;;;;5046586;28;20025;-82
2021/11/25 10:52:37;;;;;;;20.35;11.52;;;4.20;99.90;;;;;;5047356;28;20029;-81
2021/11/25 10:55:15;;;;;;;23.27;11.60;;;4.50;99.90;;;;;;5048019;28;20029;-82
2021/11/25 10:57:53;;;;;;;23.58;13.32;;;4.30;99.90;;;;;;5047888;28;20036;-80
2021/11/25 11:00:25;;;;;;;24.45;12.63;;;4.20;99.90;;;;;;5049689;28;20083;-79
2021/11/25 11:03:13;;;;;;;24.63;12.27;;;4.20;99.90;;;;;;5047758;28;20086;-82
2021/11/25 11:05:59;;;;;;;21.25;12.70;;;4.20;99.90;;;;;;5049861;28;20029;-83
2021/11/25 11:08:28;;;;;;;20.52;11.93;;;4.20;99.90;;;;;;5065657;28;20032;-82
2021/11/25 11:10:56;;;;;;;21.10;11.50;;;4.30;99.90;;;;;;5050172;28;20051;-83
2021/11/25 11:18:43;;;;;;;23.05;12.77;;;4.30;99.90;;;;;;5051624;28;20037;-80
2021/11/25 11:21:29;;;;;;;21.50;11.73;;;4.50;99.90;;;;;;5048437;28;20066;-80
2021/11/25 11:23:55;;;;;;;20.00;11.80;;;4.40;99.90;;;;;;5067219;28;20030;-83
2021/11/25 11:26:21;;;;;;;22.70;12.25;;;4.50;99.90;;;;;;5048796;28;20021;-82
2021/11/25 11:28:48;;;;;;;24.05;12.65;;;4.50;99.90;;;;;;5050222;28;20665;-80
2021/11/25 11:31:14;;;;;;;23.15;13.10;;;5.20;99.90;;;;;;5046572;28;20033;-82
2021/11/25 11:33:41;;;;;;;21.95;12.95;;;4.60;99.90;;;;;;5049171;28;20021;-81
2021/11/25 11:36:08;;;;;;;24.35;13.43;;;4.60;99.90;;;;;;5054231;28;20030;-82
2021/11/25 11:38:35;;;;;;;18.60;11.18;;;4.60;99.90;;;;;;5055370;28;20036;-80
2021/11/25 11:41:03;;;;;;;19.85;12.38;;;4.70;99.90;;;;;;5046872;28;20078;-83
2021/11/25 11:43:31;;;;;;;21.08;12.20;;;5.20;99.90;;;;;;5044957;28;20032;-79
2021/11/25 11:45:57;;;;;;;19.33;11.52;;;4.70;99.90;;;;;;5046126;28;20032;-80
2021/11/25 11:48:24;;;;;;;20.17;11.63;;;6.40;99.90;;;;;;5046806;28;20037;-80
2021/11/25 11:50:54;;;;;;;22.38;13.13;;;4.60;99.90;;;;;;5049084;28;20388;-81
2021/11/25 11:53:25;;;;;;;20.48;12.07;;;4.70;99.90;;;;;;5042546;28;20071;-79
2021/11/25 11:56:03;;;;;;;19.27;11.45;;;4.60;99.90;;;;;;5050600;28;20021;-81
2021/11/25 11:58:36;;;;;;;19.17;11.18;;;4.60;99.90;;;;;;5062780;28;20028;-80
2021/11/25 12:01:14;;;;;;;17.45;10.90;;;4.70;99.90;;;;;;5061398;28;20469;-81
2021/11/25 12:03:47;;;;;;;16.42;10.00;;;4.70;99.90;;;;;;5049648;28;20098;-81
2021/11/25 12:06:42;;;;;;;18.13;11.10;;;4.70;99.90;;;;;;5048655;28;20488;-82
2021/11/25 12:09:20;;;;;;;21.55;11.50;;;4.80;99.90;;;;;;5046090;28;20052;-80
2021/11/25 12:11:55;;;;;;;16.10;10.68;;;4.80;99.90;;;;;;5048512;28;20390;-80
2021/11/25 12:14:32;;;;;;;21.17;11.45;;;4.70;99.90;;;;;;5052653;28;20021;-82
2021/11/25 12:17:09;;;;;;;20.13;10.80;;;4.70;99.90;;;;;;5049476;28;20041;-82
2021/11/25 12:19:43;;;;;;;22.85;11.93;;;4.70;99.90;;;;;;5048755;28;20561;-83
2021/11/25 12:22:12;;;;;;;24.30;14.07;;;4.70;99.90;;;;;;5050080;28;20033;-81
2021/11/25 12:25:00;;;;;;;17.20;11.10;;;4.70;99.90;;;;;;5049743;28;20036;-81
2021/11/25 12:27:27;;;;;;;17.35;10.88;;;4.70;99.90;;;;;;5052270;28;20032;-80
2021/11/25 12:30:07;;;;;;;18.80;11.05;;;4.80;99.90;;;;;;5046229;28;20392;-82
2021/11/25 12:32:48;;;;;;;17.35;11.10;;;4.70;99.90;;;;;;5049916;28;20029;-83
2021/11/25 12:35:34;;;;;;;18.63;11.40;;;4.80;99.90;;;;;;5050839;28;20048;-81
2021/11/25 12:38:02;;;;;;;15.27;10.18;;;4.80;99.90;;;;;;5047744;28;20028;-80
2021/11/25 12:40:28;;;;;;;13.88;9.02;;;4.80;99.90;;;;;;5056945;28;20081;-82
2021/11/25 12:43:03;;;;;;;16.13;10.63;;;5.00;99.90;;;;;;5058022;28;20029;-79
2021/11/25 12:45:33;;;;;;;14.70;9.48;;;4.90;99.90;;;;;;5047171;28;20045;-80
2021/11/25 12:48:04;;;;;;;12.98;9.25;;;4.80;99.90;;;;;;5049136;28;20473;-80
2021/11/25 12:50:36;;;;;;;16.23;10.38;;;5.60;99.90;;;;;;5064440;28;20033;-80
2021/11/25 12:53:15;;;;;;;13.13;8.93;;;4.90;99.90;;;;;;5047269;28;20061;-81
2021/11/25 12:55:42;;;;;;;13.52;8.90;;;5.00;99.90;;;;;;5046973;28;20029;-79
2021/11/25 12:58:09;;;;;;;15.15;8.82;;;5.00;99.90;;;;;;5041879;28;20036;-82
2021/11/25 13:00:38;;;;;;;13.50;8.68;;;6.70;99.90;;;;;;5047125;28;20491;-80
2021/11/25 13:03:11;;;;;;;15.25;10.38;;;5.10;99.90;;;;;;5043733;28;20059;-81
2021/11/25 13:05:42;;;;;;;11.48;8.02;;;5.10;99.90;;;;;;5042998;28;20025;-80
2021/11/25 13:08:10;;;;;;;11.88;8.27;;;5.10;99.90;;;;;;5064446;28;20580;-83
2021/11/25 13:10:39;;;;;;;14.07;9.52;;;5.40;99.90;;;;;;5047420;28;20203;-80
2021/11/25 13:13:08;;;;;;;14.05;9.25;;;5.10;99.90;;;;;;5047138;28;20477;-80
2021/11/25 13:15:34;;;;;;;12.57;8.85;;;5.50;99.90;;;;;;5061219;28;20033;-85
2021/11/25 13:18:02;;;;;;;18.88;11.60;;;5.20;99.90;;;;;;5045185;28;20040;-82
2021/11/25 13:20:45;;;;;;;13.00;9.38;;;5.20;99.90;;;;;;5048013;28;20040;-80
2021/11/25 13:23:13;;;;;;;13.88;8.38;;;5.20;99.90;;;;;;5046630;28;20170;-82
2021/11/25 13:25:52;;;;;;;15.48;9.35;;;5.20;99.90;;;;;;5050043;28;20505;-79
2021/11/25 13:28:28;;;;;;;13.93;9.13;;;5.10;99.90;;;;;;5044338;28;20029;-83
2021/11/25 13:31:14;;;;;;;13.52;8.23;;;5.10;99.90;;;;;;5046546;28;20082;-80
2021/11/25 13:34:16;;;;;;;12.73;8.60;;;5.20;99.90;;;;;;5045102;28;20025;-80
2021/11/25 13:36:51;;;;;;;12.57;8.68;;;6.40;99.90;;;;;;5041331;28;20029;-80
2021/11/25 13:42:59;;;;;;;12.85;9.05;;;5.20;99.90;;;;;;5045073;28;20039;-83
2021/11/25 13:49:33;;;;;;;12.77;8.27;;;5.20;99.90;;;;;;5047347;28;20117;-82
2021/11/25 13:54:53;;;;;;;11.27;7.93;;;5.20;99.90;;;;;;5041293;28;20497;-84
2021/11/25 13:57:19;;;;;;;9.73;7.18;;;5.30;99.90;;;;;;5049192;28;20017;-82
2021/11/25 13:59:45;;;;;;;10.90;7.30;;;5.20;99.90;;;;;;5047119;28;20021;-82
2021/11/25 14:02:11;;;;;;;10.98;7.85;;;5.30;99.90;;;;;;5046360;28;20033;-81
2021/11/25 14:04:38;;;;;;;11.48;7.75;;;5.30;99.90;;;;;;5046272;28;20116;-81
2021/11/25 14:07:12;;;;;;;9.55;7.32;;;5.40;99.90;;;;;;5048079;28;20067;-81
2021/11/25 14:09:42;;;;;;;9.57;7.03;;;5.30;99.90;;;;;;5046965;28;20036;-86
2021/11/25 14:12:15;;;;;;;10.15;7.60;;;5.30;99.90;;;;;;5045757;28;20031;-87
2021/11/25 14:14:44;;;;;;;10.95;7.78;;;5.20;99.90;;;;;;5050014;28;20033;-80
2021/11/25 14:17:16;;;;;;;10.30;7.28;;;5.20;99.90;;;;;;5052137;28;20048;-84
2021/11/25 14:19:46;;;;;;;11.57;8.27;;;5.20;99.90;;;;;;5047395;28;20056;-82
2021/11/25 14:22:31;;;;;;;10.30;7.10;;;5.20;99.90;;;;;;5045933;28;20492;-79
2021/11/25 14:25:01;;;;;;;9.45;6.70;;;5.30;99.90;;;;;;5045472;28;20491;-83
2021/11/25 14:30:16;;;;;;;11.80;7.07;;;;;;;;;;5049732;28;20072;-82
2021/11/25 14:32:42;;;;;;;11.68;7.85;;;;;;;;;;5060580;28;20017;-83
2021/11/25 14:35:24;;;;;;;13.25;8.63;;;;;;;;;;5050159;28;20026;-82
2021/11/25 14:37:53;;;;;;;10.40;7.57;;;5.10;99.90;;;;;;5048972;28;20037;-83
2021/11/25 14:40:20;;;;;;;11.50;7.75;;;5.10;99.90;;;;;;5046442;28;20048;-82
2021/11/25 14:43:08;;;;;;;9.55;7.20;;;4.90;99.90;;;;;;5041092;28;20060;-82
2021/11/25 14:45:36;;;;;;;12.48;7.90;;;5.00;99.90;;;;;;5043924;28;20035;-82
2021/11/25 14:48:05;;;;;;;12.82;8.07;;;5.00;99.90;;;;;;5050860;28;20028;-83
2021/11/25 14:50:39;;;;;;;13.57;8.48;;;5.00;99.90;;;;;;5051618;28;20021;-80
2021/11/25 14:53:13;;;;;;;11.60;8.32;;;5.00;99.90;;;;;;5053198;28;20194;-83
2021/11/25 14:56:00;;;;;;;12.05;8.35;;;5.00;99.90;;;;;;5050046;28;20481;-81
2021/11/25 14:58:29;;;;;;;12.77;7.88;;;4.90;99.90;;;;;;5051529;28;20029;-83
2021/11/25 15:01:04;;;;;;;10.50;7.97;;;5.50;99.90;;;;;;5048341;28;20025;-81
2021/11/25 15:03:32;;;;;;;10.52;7.90;;;4.90;99.90;;;;;;5046535;28;20115;-83
2021/11/25 15:05:58;;;;;;;9.93;7.38;;;4.90;99.90;;;;;;5045872;28;20034;-80
2021/11/25 15:08:29;;;;;;;10.77;7.25;;;4.90;99.90;;;;;;5047032;28;20255;-80
2021/11/25 15:10:58;;;;;;;10.57;7.22;;;5.00;99.90;;;;;;5050720;28;20056;-79
2021/11/25 15:13:30;;;;;;;12.50;8.38;;;4.90;99.90;;;;;;5048651;28;20410;-80
2021/11/25 15:15:59;;;;;;;9.43;7.25;;;4.90;99.90;;;;;;5050457;28;20092;-83
2021/11/25 15:18:27;;;;;;;9.82;7.13;;;4.90;99.90;;;;;;5044427;28;20025;-82
2021/11/25 15:20:54;;;;;;;11.40;7.53;;;4.90;99.90;;;;;;5045676;28;20033;-82
2021/11/25 15:23:22;;;;;;;11.30;7.43;;;5.40;99.90;;;;;;5058663;28;20460;-80
2021/11/25 15:25:48;;;;;;;10.95;7.43;;;5.00;99.90;;;;;;5041613;28;20047;-81
2021/11/25 15:28:15;;;;;;;12.00;7.60;;;5.90;99.90;;;;;;5046319;28;20029;-80
2021/11/25 15:30:42;;;;;;;10.85;7.47;;;5.60;99.90;;;;;;5046280;28;20071;-82
2021/11/25 15:33:09;;;;;;;10.00;7.45;;;4.80;99.90;;;;;;5062278;28;20031;-81
2021/11/25 15:35:38;;;;;;;11.18;7.50;;;4.90;99.90;;;;;;5041056;28;20029;-83
2021/11/25 15:38:09;;;;;;;11.30;7.38;;;4.70;99.90;;;;;;5047775;28;20389;-81
2021/11/25 15:40:38;;;;;;;10.27;7.35;;;5.30;99.90;;;;;;5062488;28;20032;-83
2021/11/25 15:43:05;;;;;;;10.15;7.07;;;4.80;99.90;;;;;;5047794;28;20501;-81
2021/11/25 15:45:34;;;;;;;11.45;7.05;;;4.80;99.90;;;;;;5052051;28;20020;-80
2021/11/25 15:48:00;;;;;;;11.75;7.40;;;;;;;;;;5048271;28;20032;-81
2021/11/25 15:50:26;;;;;;;13.80;8.40;;;;;;;;;;5047248;28;20032;-81
2021/11/25 15:52:52;;;;;;;11.38;8.10;;;;;;;;;;5047050;28;20102;-84
2021/11/25 15:55:18;;;;;;;11.75;7.70;;;;;;;;;;5048917;28;20040;-86
2021/11/25 15:57:45;;;;;;;12.18;8.48;;;;;;;;;;5065985;28;20028;-85
2021/11/25 16:00:11;;;;;;;11.05;7.90;;;4.70;99.90;;;;;;5049601;28;20059;-83
2021/11/25 16:02:37;;;;;;;12.07;8.23;;;;;;;;;;5049053;28;20063;-84
2021/11/25 16:05:04;;;;;;;14.93;7.85;;;4.60;99.90;;;;;;5050215;28;20037;-82
2021/11/25 16:07:29;;;;;;;13.50;8.25;;;4.60;99.90;;;;;;5050023;28;20123;-84
2021/11/25 16:09:56;;;;;;;15.25;8.68;;;4.60;99.90;;;;;;5046843;28;20120;-84
2021/11/25 16:12:22;;;;;;;13.23;9.52;;;;;;;;;;5060206;28;20088;-82
2021/11/25 16:14:48;;;;;;;14.45;8.13;;;;;;;;;;5044563;28;20032;-82
2021/11/25 16:17:16;;;;;;;17.73;9.05;;;4.40;99.90;;;;;;5050554;28;20405;-83
2021/11/25 16:19:45;;;;;;;16.23;9.65;;;4.40;99.90;;;;;;5046893;28;20032;-79
2021/11/25 16:22:11;;;;;;;17.13;10.57;;;4.40;99.90;;;;;;5045678;28;20079;-81
2021/11/25 16:24:38;;;;;;;16.55;10.10;;;4.40;99.90;;;;;;5051184;28;20059;-79
2021/11/25 16:27:05;;;;;;;17.52;9.90;;;;;;;;;;5047197;28;20406;-82
2021/11/25 16:29:31;;;;;;;14.23;9.43;;;4.30;99.90;;;;;;5051254;28;20511;-80
2021/11/25 16:31:57;;;;;;;16.58;9.95;;;;;;;;;;5051872;28;20040;-79
2021/11/25 16:34:24;;;;;;;20.50;10.30;;;;;;;;;;5065502;28;20128;-83
2021/11/25 16:36:54;;;;;;;24.10;11.98;;;4.20;99.90;;;;;;5050379;28;20033;-81
2021/11/25 16:39:20;;;;;;;19.70;11.18;;;4.10;99.90;;;;;;5049480;28;20025;-81
2021/11/25 16:41:48;;;;;;;14.18;8.80;;;4.10;99.90;;;;;;5069747;28;20033;-82
2021/11/25 16:44:16;;;;;;;15.18;10.07;;;;;;;;;;5055865;28;20678;-83
2021/11/25 16:49:15;;;;;;;11.20;7.38;;;;;;;;;;5055902;28;20055;-85
2021/11/25 16:51:41;;;;;;;11.45;7.22;;;;;;;;;;5052920;28;20480;-82
2021/11/25 16:54:07;;;;;;;23.73;11.02;;;3.90;99.90;;;;;;5066330;28;20033;-81
2021/11/25 16:56:35;;;;;;;15.82;9.15;;;;;;;;;;5052732;28;20040;-83
2021/11/25 16:59:02;;;;;;;26.95;13.15;;;;;;;;;;5058846;28;20029;-81
2021/11/25 17:01:28;;;;;;;32.30;14.20;;;;;;;;;;5065364;28;20100;-83
2021/11/25 17:03:53;;;;;;;17.88;9.65;;;3.60;99.90;;;;;;5048568;28;20079;-82
2021/11/25 17:06:19;;;;;;;16.45;9.57;;;;;;;;;;5046431;28;20029;-82
2021/11/25 17:08:45;;;;;;;16.13;9.13;;;3.60;99.90;;;;;;5052385;28;20033;-82
2021/11/25 17:11:11;;;;;;;15.63;9.60;;;4.50;99.90;;;;;;5051970;28;20424;-83
2021/11/25 17:13:37;;;;;;;15.90;8.45;;;4.60;99.90;;;;;;5050939;28;20036;-84
2021/11/25 17:16:04;;;;;;;13.23;8.68;;;3.40;99.90;;;;;;5056154;28;20041;-84
2021/11/25 17:18:32;;;;;;;16.42;9.50;;;3.30;99.90;;;;;;5050396;28;20033;-81
2021/11/25 17:21:00;;;;;;;14.40;8.95;;;;;;;;;;5056775;28;20036;-81
2021/11/25 17:23:26;;;;;;;29.23;18.83;;;3.30;99.90;;;;;;5057352;28;20029;-84
2021/11/25 17:25:52;;;;;;;15.43;9.27;;;3.30;99.90;;;;;;5052441;28;20025;-81
2021/11/25 17:28:18;;;;;;;15.95;9.43;;;4.70;99.90;;;;;;5050192;28;20033;-82
2021/11/25 17:30:44;;;;;;;13.38;8.82;;;3.50;99.90;;;;;;5056791;28;20033;-82
2021/11/25 17:33:10;;;;;;;14.88;8.75;;;3.30;99.90;;;;;;5053248;28;20075;-83
2021/11/25 17:35:37;;;;;;;15.88;8.25;;;3.50;99.90;;;;;;5055334;28;20477;-80
2021/11/25 17:38:05;;;;;;;16.25;9.65;;;3.20;99.90;;;;;;5051438;28;20032;-81
2021/11/25 17:40:31;;;;;;;17.33;10.20;;;;;;;;;;5058945;28;20036;-81
2021/11/25 17:43:02;;;;;;;18.98;9.57;;;;;;;;;;5052219;28;20170;-83
2021/11/25 17:45:28;;;;;;;15.27;9.38;;;;;;;;;;5050560;28;20116;-85
2021/11/25 17:47:54;;;;;;;15.65;9.25;;;;;;;;;;5054177;28;20541;-82
2021/11/25 17:50:20;;;;;;;14.43;8.52;;;;;;;;;;5055049;28;20231;-85
2021/11/25 17:52:49;;;;;;;16.10;9.50;;;;;;;;;;5050755;28;20079;-81
2021/11/25 17:55:16;;;;;;;17.20;8.85;;;;;;;;;;5051797;28;20036;-84
2021/11/25 17:57:42;;;;;;;16.75;9.63;;;;;;;;;;5052445;28;20052;-82
2021/11/25 18:00:08;;;;;;;15.00;9.25;;;2.90;99.90;;;;;;5065702;28;20066;-84
2021/11/25 18:02:34;;;;;;;15.32;9.57;;;;;;;;;;5056577;28;20024;-83
2021/11/25 18:05:00;;;;;;;16.77;9.70;;;;;;;;;;5053482;28;20535;-83
2021/11/25 18:07:26;;;;;;;18.83;10.63;;;2.80;99.90;;;;;;5070462;28;20071;-82
2021/11/25 18:09:52;;;;;;;16.48;10.52;;;2.80;99.90;;;;;;5052950;28;20104;-84
2021/11/25 18:12:19;;;;;;;15.57;10.02;;;;;;;;;;5051618;28;20094;-83
2021/11/25 18:14:45;;;;;;;13.95;8.80;;;2.70;99.90;;;;;;5053389;28;20044;-82
2021/11/25 18:17:11;;;;;;;17.65;10.02;;;3.80;99.90;;;;;;5050440;28;20025;-82
2021/11/25 18:19:36;;;;;;;14.60;9.63;;;2.60;99.90;;;;;;5049586;28;20033;-83
2021/11/25 18:22:04;;;;;;;15.73;9.95;;;2.60;99.90;;;;;;5051202;28;20029;-83
2021/11/25 18:24:30;;;;;;;16.27;9.10;;;;;;;;;;5059559;28;20223;-83
2021/11/25 18:26:56;;;;;;;15.65;9.10;;;;;;;;;;5051243;28;20513;-83
2021/11/25 18:29:22;;;;;;;20.60;11.25;;;;;;;;;;5064328;28;21009;-84
2021/11/25 18:31:48;;;;;;;22.25;11.85;;;2.80;99.90;;;;;;5070254;28;20400;-85
2021/11/25 18:34:14;;;;;;;18.88;12.13;;;2.70;99.90;;;;;;5051214;28;20024;-85
2021/11/25 18:36:39;;;;;;;19.08;11.00;;;2.70;99.90;;;;;;5049608;28;20021;-81
2021/11/25 18:39:05;;;;;;;19.65;11.52;;;2.70;99.90;;;;;;5046561;28;20069;-80
2021/11/25 18:41:32;;;;;;;18.17;11.07;;;;;;;;;;5050405;28;20032;-82
2021/11/25 18:44:00;;;;;;;18.88;10.27;;;;;;;;;;5065841;28;20064;-83
2021/11/25 18:46:26;;;;;;;15.20;9.52;;;;;;;;;;5060370;28;20047;-80
2021/11/25 18:49:02;;;;;;;16.42;9.90;;;;;;;;;;5051906;28;20115;-81
2021/11/25 18:51:29;;;;;;;15.70;9.93;;;2.60;99.90;;;;;;5075597;28;20024;-85
2021/11/25 18:53:55;;;;;;;18.75;10.75;;;;;;;;;;5047121;28;20470;-82
2021/11/25 18:56:21;;;;;;;16.63;10.07;;;;;;;;;;5062771;28;20032;-83
2021/11/25 18:58:48;;;;;;;15.38;10.00;;;2.60;99.90;;;;;;5049787;28;20037;-82
2021/11/25 19:01:15;;;;;;;15.07;9.82;;;2.60;99.90;;;;;;5051193;28;20060;-84
2021/11/25 19:03:41;;;;;;;15.50;9.70;;;;;;;;;;5044612;28;20037;-81
2021/11/25 19:06:07;;;;;;;19.63;10.73;;;2.60;99.90;;;;;;5065439;28;20036;-84
2021/11/25 19:08:34;;;;;;;16.92;10.23;;;2.60;99.90;;;;;;5051352;28;20237;-84
2021/11/25 19:11:01;;;;;;;19.70;11.35;;;2.60;99.90;;;;;;5050427;28;20481;-81
2021/11/25 19:13:27;;;;;;;18.02;11.13;;;2.60;99.90;;;;;;5051295;28;20070;-83
2021/11/25 19:15:53;;;;;;;22.83;11.55;;;2.50;99.90;;;;;;5049839;28;20087;-82
2021/11/25 19:18:19;;;;;;;19.63;11.98;;;;;;;;;;5051949;28;20028;-82
2021/11/25 19:20:45;;;;;;;23.85;11.88;;;2.50;99.90;;;;;;5051515;28;20466;-81
2021/11/25 19:23:10;;;;;;;19.95;11.73;;;3.10;99.90;;;;;;5053754;28;20082;-82
2021/11/25 19:25:36;;;;;;;21.63;12.23;;;2.50;99.90;;;;;;5051450;28;20033;-81
2021/11/25 19:28:02;;;;;;;22.23;12.60;;;2.40;99.90;;;;;;5054538;28;20389;-82
2021/11/25 19:30:28;;;;;;;26.48;13.68;;;2.50;99.90;;;;;;5055091;28;20024;-83
2021/11/25 19:32:55;;;;;;;21.40;12.32;;;3.40;99.90;;;;;;5055021;28;20029;-85
2021/11/25 19:35:23;;;;;;;24.70;12.55;;;2.50;99.90;;;;;;5055876;28;20458;-82
2021/11/25 19:37:49;;;;;;;22.48;13.20;;;3.40;99.90;;;;;;5055944;28;20033;-83
2021/11/25 19:40:17;;;;;;;28.27;14.45;;;2.40;99.90;;;;;;5055412;28;20031;-84
2021/11/25 19:42:44;;;;;;;24.35;13.15;;;2.40;99.90;;;;;;5052942;28;20039;-85
2021/11/25 19:45:13;;;;;;;23.33;12.38;;;2.40;99.90;;;;;;5063855;28;20032;-84
2021/11/25 19:47:39;;;;;;;26.77;13.40;;;3.60;99.90;;;;;;5051437;28;20035;-81
2021/11/25 19:50:07;;;;;;;27.88;13.70;;;3.80;99.90;;;;;;5047529;28;20030;-82
2021/11/25 19:52:35;;;;;;;22.58;13.25;;;2.40;99.90;;;;;;5051671;28;20026;-81
2021/11/25 19:55:05;;;;;;;22.65;13.20;;;2.70;99.90;;;;;;5050277;28;20017;-87
2021/11/25 19:57:31;;;;;;;26.02;14.30;;;2.40;99.90;;;;;;5054961;28;20025;-81
2021/11/25 19:59:57;;;;;;;24.27;13.88;;;2.40;99.90;;;;;;5053592;28;20033;-82
2021/11/25 20:02:23;;;;;;;26.88;14.15;;;2.40;99.90;;;;;;5057485;28;20040;-83
2021/11/25 20:04:49;;;;;;;21.80;12.07;;;;;;;;;;5053268;28;20033;-81
2021/11/25 20:07:15;;;;;;;20.45;12.40;;;;;;;;;;5067180;28;20029;-82
2021/11/25 20:09:41;;;;;;;37.78;13.35;;;;;;;;;;5055596;28;20069;-82
2021/11/25 20:12:10;;;;;;;22.33;13.38;;;2.50;99.90;;;;;;5058805;28;20036;-82
2021/11/25 20:14:37;;;;;;;27.13;13.35;;;;;;;;;;5061828;28;20036;-83
2021/11/25 20:17:03;;;;;;;23.77;13.32;;;;;;;;;;5048700;28;20039;-81
2021/11/25 20:19:29;;;;;;;26.55;14.13;;;2.50;99.90;;;;;;5069956;28;20025;-83
2021/11/25 20:21:55;;;;;;;21.95;13.38;;;2.40;99.90;;;;;;5056755;28;20539;-81
2021/11/25 20:24:21;;;;;;;26.73;14.05;;;2.30;99.90;;;;;;5049702;28;20048;-82
2021/11/25 20:26:47;;;;;;;24.33;12.95;;;;;;;;;;5050579;28;20500;-83
2021/11/25 20:29:13;;;;;;;23.63;13.90;;;;;;;;;;5054533;28;20061;-80
2021/11/25 20:31:39;;;;;;;25.85;13.68;;;2.50;99.90;;;;;;5055793;28;20061;-83
2021/11/25 20:34:06;;;;;;;24.25;14.30;;;2.40;99.90;;;;;;5056396;28;20076;-82
2021/11/25 20:36:32;;;;;;;24.52;13.77;;;3.30;99.90;;;;;;5055800;28;20036;-81
2021/11/25 20:38:58;;;;;;;27.27;14.55;;;;;;;;;;5056967;28;20021;-82
2021/11/25 20:41:24;;;;;;;23.45;14.10;;;;;;;;;;5049458;28;20544;-84
2021/11/25 20:43:50;;;;;;;24.27;13.63;;;;;;;;;;5075806;28;20056;-82
2021/11/25 20:46:17;;;;;;;28.15;13.98;;;2.60;99.90;;;;;;5055721;28;20029;-81
2021/11/25 20:48:44;;;;;;;28.15;15.60;;;2.60;99.90;;;;;;5055029;28;20023;-83
2021/11/25 20:51:10;;;;;;;34.28;16.88;;;2.50;99.90;;;;;;5056495;28;20158;-82
2021/11/25 20:53:37;;;;;;;27.33;15.38;;;2.60;99.90;;;;;;5056654;28;20055;-82
2021/11/25 20:56:03;;;;;;;23.35;14.15;;;2.50;99.90;;;;;;5055579;28;20021;-82
2021/11/25 20:58:32;;;;;;;29.58;15.18;;;2.50;99.90;;;;;;5055786;28;20051;-83
2021/11/25 21:01:01;;;;;;;45.05;19.85;;;2.60;99.90;;;;;;5053486;28;20021;-84
2021/11/25 21:03:27;;;;;;;59.42;24.25;;;2.60;99.90;;;;;;5055142;28;20025;-83
2021/11/25 21:05:53;;;;;;;40.45;19.10;;;;;;;;;;5057195;28;20060;-86
2021/11/25 21:08:19;;;;;;;30.17;16.15;;;2.60;99.90;;;;;;5058506;28;20052;-84
2021/11/25 21:10:45;;;;;;;29.70;16.20;;;;;;;;;;5059525;28;20025;-86
2021/11/25 21:13:12;;;;;;;29.42;14.85;;;2.50;99.90;;;;;;5072985;28;20051;-85
2021/11/25 21:15:39;;;;;;;31.25;15.70;;;2.60;99.90;;;;;;5061894;28;20028;-83
2021/11/25 21:18:05;;;;;;;33.05;16.13;;;;;;;;;;5054255;28;20025;-85
2021/11/25 21:20:31;;;;;;;26.63;15.52;;;2.60;99.90;;;;;;5070728;28;20029;-81
2021/11/25 21:23:00;;;;;;;25.45;15.50;;;2.60;99.90;;;;;;5052427;28;20040;-83
2021/11/25 21:25:27;;;;;;;28.00;15.30;;;;;;;;;;5054139;28;20115;-85
2021/11/25 21:27:56;;;;;;;30.70;15.85;;;2.60;99.90;;;;;;5051957;28;20041;-83
2021/11/25 21:30:22;;;;;;;26.08;14.88;;;2.50;99.90;;;;;;5047945;28;20040;-81
2021/11/25 21:32:50;;;;;;;27.92;15.30;;;;;;;;;;5056613;28;20029;-83
2021/11/25 21:35:18;;;;;;;26.25;15.25;;;2.50;99.90;;;;;;5054082;28;20028;-81
2021/11/25 21:37:46;;;;;;;30.88;15.77;;;2.60;99.90;;;;;;5052095;28;20033;-85
2021/11/25 21:40:16;;;;;;;28.30;15.98;;;2.60;99.90;;;;;;5056351;28;20089;-82
2021/11/25 21:42:42;;;;;;;27.23;16.20;;;3.40;99.90;;;;;;5054634;28;20029;-82
2021/11/25 21:45:10;;;;;;;29.02;16.00;;;2.70;99.90;;;;;;5051807;28;20028;-85
2021/11/25 21:47:41;;;;;;;26.27;15.65;;;2.70;99.90;;;;;;5053987;28;20025;-84
2021/11/25 21:50:09;;;;;;;28.83;15.65;;;2.70;99.90;;;;;;5054995;28;20063;-84
2021/11/25 21:52:35;;;;;;;30.95;16.75;;;2.70;99.90;;;;;;5049379;28;20090;-86
2021/11/25 21:55:01;;;;;;;30.10;16.02;;;2.80;99.90;;;;;;5054105;28;20021;-83
2021/11/25 21:57:27;;;;;;;30.70;16.42;;;3.50;99.90;;;;;;5048813;28;20086;-83
2021/11/25 21:59:55;;;;;;;31.25;17.58;;;4.50;99.90;;;;;;5047475;28;20481;-83
2021/11/25 22:02:21;;;;;;;31.67;18.00;;;2.70;99.90;;;;;;5050753;28;20497;-86
2021/11/25 22:04:50;;;;;;;32.63;18.27;;;4.00;99.90;;;;;;5052026;28;20041;-84
2021/11/25 22:07:15;;;;;;;29.92;16.75;;;2.70;99.90;;;;;;5049877;28;20065;-83
2021/11/25 22:09:41;;;;;;;31.58;17.25;;;2.70;99.90;;;;;;5050580;28;20064;-81
2021/11/25 22:12:07;;;;;;;30.40;16.95;;;5.30;99.90;;;;;;5050540;28;20035;-82
2021/11/25 22:14:33;;;;;;;36.25;17.50;;;1.30;99.90;;;;;;5047730;28;20096;-81
2021/11/25 22:17:01;;;;;;;28.65;16.67;;;2.70;99.90;;;;;;5053687;28;20029;-83
2021/11/25 22:19:29;;;;;;;29.63;16.92;;;2.70;99.90;;;;;;5056369;28;20101;-83
2021/11/25 22:24:56;;;;;;;33.25;18.17;;;2.80;99.90;;;;;;5053123;28;20036;-82
2021/11/25 22:24:59;;;;;;;29.77;16.73;;;2.80;99.90;;;;;;5049859;28;20043;-83
2021/11/25 22:27:27;;;;;;;31.10;16.38;;;2.80;99.90;;;;;;5053479;28;20032;-84
2021/11/25 22:29:53;;;;;;;33.72;18.92;;;2.90;99.90;;;;;;5064146;22;20053;-85
2021/11/25 22:32:24;;;;;;;31.65;16.70;;;2.80;99.90;;;;;;5035939;28;20022;-83
2021/11/25 22:34:50;;;;;;;32.38;17.63;;;2.80;99.90;;;;;;5036246;28;20025;-84
2021/11/25 22:37:18;;;;;;;32.25;16.98;;;2.80;99.90;;;;;;5039358;28;20061;-84
2021/11/25 22:39:44;;;;;;;31.38;17.20;;;2.80;99.90;;;;;;5054139;28;20060;-81
2021/11/25 22:42:10;;;;;;;32.25;17.85;;;3.50;99.90;;;;;;5029588;28;20037;-84
2021/11/25 22:44:36;;;;;;;34.88;18.25;;;;;;;;;;5034739;28;20403;-82
2021/11/25 22:47:02;;;;;;;32.00;17.50;;;;;;;;;;5037041;28;20044;-84
2021/11/25 22:49:28;;;;;;;36.67;18.40;;;;;;;;;;5037974;28;20033;-83
2021/11/25 22:51:54;;;;;;;31.20;17.63;;;;;;;;;;5042946;28;20033;-85
2021/11/25 22:54:20;;;;;;;33.92;17.20;;;;;;;;;;5040772;28;20433;-85
2021/11/25 22:56:46;;;;;;;33.85;17.77;;;;;;;;;;5037655;28;20444;-82
2021/11/25 22:59:12;;;;;;;34.47;17.65;;;2.80;99.90;;;;;;5038374;28;20120;-80
2021/11/25 23:01:38;;;;;;;40.22;19.30;;;5.40;99.90;;;;;;5037524;28;20053;-84
2021/11/25 23:04:04;;;;;;;32.33;17.58;;;2.80;99.90;;;;;;5039490;28;20479;-84
2021/11/25 23:06:29;;;;;;;32.10;17.75;;;3.50;99.90;;;;;;5037474;28;20220;-84
2021/11/25 23:08:56;;;;;;;30.83;17.52;;;;;;;;;;5036207;28;20037;-83
2021/11/25 23:11:21;;;;;;;32.45;18.00;;;2.80;99.90;;;;;;5041648;28;20041;-85
2021/11/25 23:13:47;;;;;;;34.00;17.88;;;2.60;99.90;;;;;;5043336;28;20052;-80
2021/11/25 23:16:13;;;;;;;32.25;16.73;;;;;;;;;;5042650;28;20029;-83
2021/11/25 23:18:40;;;;;;;32.92;17.67;;;;;;;;;;5045343;28;20026;-83
2021/11/25 23:21:06;;;;;;;33.30;18.25;;;;;;;;;;5042735;28;20052;-84
2021/11/25 23:23:32;;;;;;;35.03;18.02;;;;;;;;;;5040959;28;20061;-81
2021/11/25 23:25:58;;;;;;;32.45;18.40;;;;;;;;;;5042159;28;20020;-80
2021/11/25 23:28:24;;;;;;;33.55;17.88;;;;;;;;;;5034354;28;20102;-82
2021/11/25 23:30:51;;;;;;;36.10;19.83;;;2.90;99.90;;;;;;5042134;28;20044;-83
2021/11/25 23:33:17;;;;;;;36.42;19.60;;;;;;;;;;5042366;28;20112;-85
2021/11/25 23:35:43;;;;;;;35.47;18.98;;;;;;;;;;5040662;28;20036;-82
2021/11/25 23:38:10;;;;;;;33.00;19.10;;;2.90;99.90;;;;;;5028913;28;20026;-83
2021/11/25 23:40:39;;;;;;;39.60;20.58;;;2.90;99.90;;;;;;5039733;28;20040;-84
2021/11/25 23:43:08;;;;;;;39.13;19.27;;;2.90;99.90;;;;;;5050659;28;20038;-84
2021/11/25 23:45:39;;;;;;;39.67;21.35;;;2.90;99.90;;;;;;5048554;28;20089;-85
2021/11/25 23:48:08;;;;;;;35.72;19.50;;;;;;;;;;5043277;28;20037;-81
2021/11/25 23:53:33;;;;;;;40.78;21.33;;;;;;;;;;5029787;28;20025;-81
2021/11/25 23:56:01;;;;;;;36.17;19.90;;;;;;;;;;5044665;28;20025;-82
2021/11/25 23:58:28;;;;;;;42.65;21.40;;;2.80;99.90;;;;;;5052623;28;20014;-82
